createdAt,value
2023-05-08T00:00:59.512Z,20.30
2023-05-08T00:03:27.015Z,20.30
2023-05-08T00:05:55.752Z,20.30
2023-05-08T00:08:22.720Z,20.20
2023-05-08T00:10:49.487Z,20.30
2023-05-08T00:13:16.485Z,20.20
2023-05-08T00:15:43.540Z,20.20
2023-05-08T00:18:10.316Z,20.20
2023-05-08T00:20:37.892Z,20.20
2023-05-08T00:23:04.947Z,20.20
2023-05-08T00:25:32.088Z,20.20
2023-05-08T00:27:59.826Z,20.20
2023-05-08T00:30:27.084Z,20.20
2023-05-08T00:35:21.177Z,20.20
2023-05-08T00:37:48.098Z,20.20
2023-05-08T00:40:14.977Z,20.20
2023-05-08T00:42:42.298Z,20.20
2023-05-08T00:45:09.636Z,20.20
2023-05-08T00:47:36.601Z,17.90
2023-05-08T00:50:04.955Z,20.10
2023-05-08T00:52:33.850Z,20.10
2023-05-08T00:55:02.871Z,20.10
2023-05-08T00:57:32.960Z,20.10
2023-05-08T01:00:03.253Z,20.10
2023-05-08T01:02:31.799Z,20.10
2023-05-08T01:04:58.802Z,20.10
2023-05-08T01:07:26.140Z,20.10
2023-05-08T01:09:52.927Z,20.10
2023-05-08T01:12:44.242Z,20.10
2023-05-08T01:15:22.244Z,20.10
2023-05-08T01:17:58.014Z,20.10
2023-05-08T01:20:39.925Z,20.00
2023-05-08T01:23:12.726Z,20.10
2023-05-08T01:26:15.047Z,20.00
2023-05-08T01:29:40.217Z,20.10
2023-05-08T01:32:18.565Z,20.10
2023-05-08T01:35:14.216Z,20.00
2023-05-08T01:37:57.911Z,20.10
2023-05-08T01:40:51.586Z,20.10
2023-05-08T01:43:26.908Z,20.00
2023-05-08T01:45:55.108Z,20.10
2023-05-08T01:48:25.590Z,20.00
2023-05-08T01:51:11.672Z,20.00
2023-05-08T01:53:45.000Z,20.00
2023-05-08T01:56:18.979Z,20.00
2023-05-08T01:58:47.590Z,20.10
2023-05-08T02:01:18.465Z,20.00
2023-05-08T02:03:46.589Z,20.00
2023-05-08T02:06:17.331Z,20.00
2023-05-08T02:08:46.894Z,20.10
2023-05-08T02:11:16.306Z,20.00
2023-05-08T02:13:46.685Z,20.20
2023-05-08T02:16:14.648Z,20.00
2023-05-08T02:18:46.869Z,20.00
2023-05-08T02:21:15.345Z,20.00
2023-05-08T02:23:43.896Z,20.00
2023-05-08T02:26:13.163Z,20.00
2023-05-08T02:28:41.385Z,20.00
2023-05-08T02:31:12.674Z,20.00
2023-05-08T02:33:42.628Z,20.00
2023-05-08T02:36:13.417Z,20.00
2023-05-08T02:38:44.068Z,20.00
2023-05-08T02:41:13.558Z,20.00
2023-05-08T02:43:40.966Z,19.90
2023-05-08T02:46:11.107Z,20.00
2023-05-08T02:48:56.980Z,19.90
2023-05-08T02:51:43.827Z,19.90
2023-05-08T02:54:19.317Z,20.10
2023-05-08T02:57:13.257Z,20.00
2023-05-08T02:59:45.423Z,19.90
2023-05-08T03:02:33.142Z,20.10
2023-05-08T03:05:05.058Z,19.90
2023-05-08T03:07:34.843Z,19.90
2023-05-08T03:10:10.673Z,19.80
2023-05-08T03:12:42.863Z,19.80
2023-05-08T03:15:14.326Z,19.80
2023-05-08T03:17:43.365Z,19.80
2023-05-08T03:20:15.097Z,19.80
2023-05-08T03:22:44.000Z,19.80
2023-05-08T03:25:14.076Z,19.70
2023-05-08T03:27:42.921Z,19.70
2023-05-08T03:30:12.073Z,19.70
2023-05-08T03:32:44.546Z,19.70
2023-05-08T03:35:11.673Z,18.20
2023-05-08T03:37:38.625Z,19.70
2023-05-08T03:40:08.183Z,19.60
2023-05-08T03:42:36.686Z,19.60
2023-05-08T03:45:04.933Z,19.60
2023-05-08T03:47:33.011Z,19.60
2023-05-08T03:50:01.098Z,19.50
2023-05-08T03:52:28.121Z,19.60
2023-05-08T03:54:54.965Z,19.60
2023-05-08T03:57:24.818Z,19.60
2023-05-08T03:59:54.510Z,19.50
2023-05-08T04:02:43.091Z,19.50
2023-05-08T04:05:34.581Z,19.50
2023-05-08T04:08:20.228Z,19.40
2023-05-08T04:10:55.106Z,19.40
2023-05-08T04:13:31.351Z,19.40
2023-05-08T04:16:09.641Z,19.40
2023-05-08T04:18:40.276Z,19.40
2023-05-08T04:21:11.437Z,19.40
2023-05-08T04:23:41.523Z,19.30
2023-05-08T04:26:10.696Z,19.40
2023-05-08T04:28:37.645Z,19.40
2023-05-08T04:31:05.543Z,19.30
2023-05-08T04:33:34.965Z,19.30
2023-05-08T04:36:03.021Z,19.30
2023-05-08T04:38:30.859Z,19.30
2023-05-08T04:40:57.810Z,19.30
2023-05-08T04:43:25.304Z,19.30
2023-05-08T04:45:52.103Z,19.30
2023-05-08T04:48:19.310Z,19.30
2023-05-08T04:50:46.190Z,19.30
2023-05-08T04:53:14.586Z,19.30
2023-05-08T04:55:41.918Z,19.30
2023-05-08T04:58:10.820Z,19.30
2023-05-08T05:00:37.643Z,19.30
2023-05-08T05:03:04.554Z,19.30
2023-05-08T05:05:31.492Z,19.20
2023-05-08T05:07:58.866Z,19.20
2023-05-08T05:10:25.719Z,19.20
2023-05-08T05:12:52.580Z,19.20
2023-05-08T05:15:19.539Z,19.20
2023-05-08T05:17:46.466Z,19.30
2023-05-08T05:20:15.029Z,19.20
2023-05-08T05:22:41.936Z,19.20
2023-05-08T05:25:09.813Z,19.30
2023-05-08T05:27:37.108Z,19.20
2023-05-08T05:30:05.798Z,19.30
2023-05-08T05:32:33.142Z,19.20
2023-05-08T05:35:00.329Z,19.20
2023-05-08T05:37:28.125Z,19.20
2023-05-08T05:39:55.029Z,19.20
2023-05-08T05:42:21.861Z,19.20
2023-05-08T05:44:48.810Z,19.20
2023-05-08T05:47:16.459Z,19.20
2023-05-08T05:49:46.854Z,19.30
2023-05-08T05:52:14.535Z,19.20
2023-05-08T05:54:44.236Z,19.20
2023-05-08T05:57:13.228Z,19.20
2023-05-08T05:59:41.286Z,19.20
2023-05-08T06:02:10.521Z,19.20
2023-05-08T06:04:38.222Z,19.20
2023-05-08T06:07:06.910Z,19.20
2023-05-08T06:09:33.721Z,19.20
2023-05-08T06:12:00.621Z,19.20
2023-05-08T06:14:27.440Z,19.30
2023-05-08T06:16:54.309Z,19.30
2023-05-08T06:19:21.226Z,19.20
2023-05-08T06:21:48.305Z,19.30
2023-05-08T06:24:15.700Z,19.30
2023-05-08T06:26:42.600Z,19.30
2023-05-08T06:29:09.432Z,19.30
2023-05-08T06:31:36.346Z,19.20
2023-05-08T06:34:03.251Z,19.30
2023-05-08T06:36:30.042Z,19.30
2023-05-08T06:38:56.856Z,19.30
2023-05-08T06:41:23.993Z,19.30
2023-05-08T06:43:50.968Z,19.30
2023-05-08T06:46:18.115Z,19.20
2023-05-08T06:48:45.010Z,23.40
2023-05-08T06:51:11.842Z,19.20
2023-05-08T06:53:38.636Z,19.20
2023-05-08T06:56:05.963Z,19.20
2023-05-08T06:58:32.812Z,19.20
2023-05-08T07:01:01.425Z,19.20
2023-05-08T07:03:28.696Z,19.20
2023-05-08T07:05:56.009Z,19.20
2023-05-08T07:08:22.838Z,19.20
2023-05-08T07:10:49.717Z,19.30
2023-05-08T07:13:21.651Z,19.20
2023-05-08T07:15:48.669Z,19.30
2023-05-08T07:18:15.464Z,19.20
2023-05-08T07:20:42.237Z,19.30
2023-05-08T07:23:09.876Z,19.40
2023-05-08T07:25:36.685Z,19.30
2023-05-08T07:28:03.492Z,19.30
2023-05-08T07:30:30.525Z,19.30
2023-05-08T07:32:57.415Z,19.30
2023-05-08T07:35:24.323Z,19.30
2023-05-08T07:37:51.065Z,19.40
2023-05-08T07:40:17.997Z,19.40
2023-05-08T07:42:45.287Z,19.50
2023-05-08T07:45:13.973Z,19.60
2023-05-08T07:47:52.787Z,19.60
2023-05-08T07:50:20.345Z,19.70
2023-05-08T07:52:49.806Z,19.80
2023-05-08T07:55:17.432Z,19.80
2023-05-08T07:57:44.703Z,19.90
2023-05-08T08:00:13.860Z,20.00
2023-05-08T08:02:41.725Z,20.10
2023-05-08T08:05:09.126Z,20.10
2023-05-08T08:07:36.166Z,20.30
2023-05-08T08:10:04.519Z,20.40
2023-05-08T08:12:32.052Z,20.40
2023-05-08T08:14:58.831Z,20.50
2023-05-08T08:17:28.450Z,20.60
2023-05-08T08:19:56.417Z,20.60
2023-05-08T08:22:24.079Z,20.60
2023-05-08T08:24:52.481Z,20.80
2023-05-08T08:27:21.810Z,20.80
2023-05-08T08:29:48.609Z,20.80
2023-05-08T08:32:15.378Z,21.10
2023-05-08T08:34:42.400Z,20.90
2023-05-08T08:37:09.199Z,20.90
2023-05-08T08:39:36.007Z,21.00
2023-05-08T08:42:03.537Z,21.00
2023-05-08T08:44:30.362Z,21.10
2023-05-08T08:47:00.182Z,21.10
2023-05-08T08:49:31.736Z,21.20
2023-05-08T08:52:21.470Z,21.20
2023-05-08T08:54:50.645Z,21.20
2023-05-08T08:57:19.050Z,21.20
2023-05-08T08:59:46.136Z,21.30
2023-05-08T09:02:17.913Z,21.30
2023-05-08T09:04:45.439Z,21.40
2023-05-08T09:07:13.069Z,21.40
2023-05-08T09:09:44.639Z,21.40
2023-05-08T09:12:13.683Z,21.40
2023-05-08T09:14:40.690Z,21.50
2023-05-08T09:17:07.949Z,21.50
2023-05-08T09:19:35.430Z,21.60
2023-05-08T09:22:06.803Z,21.60
2023-05-08T09:24:59.757Z,21.60
2023-05-08T09:27:32.480Z,21.60
2023-05-08T09:30:06.448Z,21.60
2023-05-08T09:32:35.390Z,21.60
2023-05-08T09:35:02.827Z,21.70
2023-05-08T09:37:30.392Z,21.70
2023-05-08T09:40:16.432Z,21.70
2023-05-08T09:42:43.842Z,21.70
2023-05-08T09:45:11.581Z,21.70
2023-05-08T09:47:39.648Z,21.80
2023-05-08T09:50:08.947Z,21.80
2023-05-08T09:52:37.893Z,21.80
2023-05-08T09:55:06.082Z,21.90
2023-05-08T09:57:39.232Z,21.90
2023-05-08T10:00:13.760Z,22.00
2023-05-08T10:02:42.687Z,22.00
2023-05-08T10:05:32.186Z,22.00
2023-05-08T10:08:17.360Z,22.20
2023-05-08T10:10:44.250Z,22.10
2023-05-08T10:13:11.216Z,22.20
2023-05-08T10:15:41.755Z,22.20
2023-05-08T10:18:09.470Z,22.20
2023-05-08T10:20:40.030Z,22.30
2023-05-08T10:23:14.603Z,22.40
2023-05-08T10:25:45.616Z,22.40
2023-05-08T10:28:42.672Z,22.50
2023-05-08T10:31:14.338Z,22.50
2023-05-08T10:33:43.828Z,22.80
2023-05-08T10:36:11.118Z,22.70
2023-05-08T10:38:38.988Z,19.70
2023-05-08T10:41:06.406Z,22.90
2023-05-08T10:43:34.081Z,23.00
2023-05-08T10:46:09.390Z,20.60
2023-05-08T10:49:05.063Z,23.20
2023-05-08T10:52:00.674Z,23.30
2023-05-08T10:54:46.225Z,23.50
2023-05-08T10:57:13.209Z,23.60
2023-05-08T10:59:45.399Z,23.70
2023-05-08T11:02:16.819Z,23.80
2023-05-08T11:04:44.040Z,23.90
2023-05-08T11:07:11.549Z,24.00
2023-05-08T11:09:41.154Z,24.10
2023-05-08T11:12:30.970Z,24.10
2023-05-08T11:15:09.414Z,24.20
2023-05-08T11:17:36.294Z,24.20
2023-05-08T11:20:05.610Z,24.20
2023-05-08T11:22:34.336Z,24.10
2023-05-08T11:25:09.735Z,24.10
2023-05-08T11:27:48.632Z,24.10
2023-05-08T11:30:33.487Z,24.00
2023-05-08T11:33:03.828Z,24.00
2023-05-08T11:35:44.121Z,23.90
2023-05-08T11:38:17.970Z,23.90
2023-05-08T11:40:47.160Z,23.90
2023-05-08T11:43:59.415Z,23.90
2023-05-08T11:46:40.548Z,23.90
2023-05-08T11:49:16.728Z,23.90
2023-05-08T11:51:54.975Z,23.90
2023-05-08T11:54:22.993Z,23.90
2023-05-08T11:56:51.549Z,23.90
2023-05-08T11:59:19.341Z,24.00
2023-05-08T12:02:06.754Z,24.00
2023-05-08T12:04:44.673Z,24.10
2023-05-08T12:07:11.819Z,24.20
2023-05-08T12:09:38.786Z,24.20
2023-05-08T12:12:05.765Z,24.20
2023-05-08T12:14:35.068Z,24.20
2023-05-08T12:17:02.872Z,24.20
2023-05-08T12:19:29.832Z,24.20
2023-05-08T12:21:57.970Z,24.30
2023-05-08T12:24:26.787Z,24.30
2023-05-08T12:26:55.844Z,24.30
2023-05-08T12:29:23.129Z,24.30
2023-05-08T12:31:50.307Z,24.30
2023-05-08T12:34:17.497Z,24.30
2023-05-08T12:36:44.393Z,24.30
2023-05-08T12:39:18.827Z,24.30
2023-05-08T12:41:50.211Z,24.30
2023-05-08T12:44:22.654Z,24.30
2023-05-08T12:46:54.689Z,24.20
2023-05-08T12:49:29.931Z,24.20
2023-05-08T12:52:12.980Z,24.20
2023-05-08T12:54:46.148Z,24.10
2023-05-08T12:57:14.651Z,24.10
2023-05-08T12:59:43.469Z,24.00
2023-05-08T13:02:28.449Z,23.90
2023-05-08T13:04:58.107Z,23.10
2023-05-08T13:07:31.361Z,23.80
2023-05-08T13:10:01.048Z,22.80
2023-05-08T13:12:27.948Z,23.80
2023-05-08T13:14:54.811Z,23.70
2023-05-08T13:17:21.700Z,23.70
2023-05-08T13:19:48.509Z,23.70
2023-05-08T13:22:15.317Z,23.60
2023-05-08T13:24:42.098Z,23.60
2023-05-08T13:27:09.426Z,23.60
2023-05-08T13:29:36.557Z,23.60
2023-05-08T13:32:03.469Z,23.60
2023-05-08T13:34:30.347Z,23.50
2023-05-08T13:36:57.568Z,23.50
2023-05-08T13:39:24.379Z,23.40
2023-05-08T13:41:51.155Z,23.50
2023-05-08T13:44:17.980Z,23.40
2023-05-08T13:46:44.795Z,23.40
2023-05-08T13:49:11.651Z,23.40
2023-05-08T13:51:38.522Z,23.30
2023-05-08T13:54:05.594Z,23.20
2023-05-08T13:56:32.359Z,23.20
2023-05-08T13:58:59.160Z,23.10
2023-05-08T14:01:27.722Z,23.10
2023-05-08T14:03:55.429Z,23.10
2023-05-08T14:06:22.564Z,23.00
2023-05-08T14:08:51.075Z,23.00
2023-05-08T14:11:19.664Z,23.00
2023-05-08T14:13:46.440Z,23.00
2023-05-08T14:16:15.066Z,22.90
2023-05-08T14:18:41.929Z,22.90
2023-05-08T14:21:08.684Z,22.90
2023-05-08T14:23:36.029Z,22.90
2023-05-08T14:26:03.067Z,22.90
2023-05-08T14:28:29.920Z,22.80
2023-05-08T14:30:56.755Z,22.90
2023-05-08T14:33:23.634Z,22.80
2023-05-08T14:35:50.457Z,22.90
2023-05-08T14:38:17.267Z,22.90
2023-05-08T14:40:44.129Z,22.90
2023-05-08T14:43:11.008Z,22.80
2023-05-08T14:45:37.829Z,22.80
2023-05-08T14:48:05.063Z,22.80
2023-05-08T14:50:31.837Z,22.80
2023-05-08T14:52:58.653Z,22.80
2023-05-08T14:55:26.476Z,22.80
2023-05-08T14:57:53.602Z,22.80
2023-05-08T15:00:21.493Z,22.80
2023-05-08T15:02:48.643Z,22.70
2023-05-08T15:05:19.986Z,22.70
2023-05-08T15:07:49.583Z,22.70
2023-05-08T15:10:16.565Z,22.80
2023-05-08T15:12:43.480Z,22.80
2023-05-08T15:15:10.732Z,22.80
2023-05-08T15:17:37.710Z,22.80
2023-05-08T15:20:05.483Z,22.80
2023-05-08T15:22:32.471Z,22.80
2023-05-08T15:25:02.536Z,22.80
2023-05-08T15:27:30.283Z,22.80
2023-05-08T15:29:57.441Z,22.80
2023-05-08T15:32:24.845Z,22.80
2023-05-08T15:34:51.708Z,22.80
2023-05-08T15:37:18.788Z,22.90
2023-05-08T15:39:45.564Z,22.90
2023-05-08T15:42:12.792Z,22.90
2023-05-08T15:44:53.793Z,22.90
2023-05-08T15:47:23.060Z,23.00
2023-05-08T15:49:51.252Z,23.00
2023-05-08T15:52:19.727Z,23.00
2023-05-08T15:54:47.494Z,23.00
2023-05-08T15:57:14.408Z,23.10
2023-05-08T15:59:41.646Z,23.10
2023-05-08T16:02:08.794Z,23.20
2023-05-08T16:04:35.930Z,23.30
2023-05-08T16:07:02.767Z,23.40
2023-05-08T16:09:29.727Z,23.40
2023-05-08T16:11:56.671Z,23.50
2023-05-08T16:14:23.470Z,23.50
2023-05-08T16:16:50.318Z,23.50
2023-05-08T16:19:17.108Z,23.50
2023-05-08T16:21:47.596Z,23.40
2023-05-08T16:24:14.625Z,23.40
2023-05-08T16:26:41.577Z,23.40
2023-05-08T16:29:08.446Z,23.40
2023-05-08T16:31:35.528Z,23.30
2023-05-08T16:34:02.558Z,23.30
2023-05-08T16:36:29.474Z,23.20
2023-05-08T16:38:56.259Z,23.30
2023-05-08T16:41:23.193Z,23.30
2023-05-08T16:43:50.188Z,23.40
2023-05-08T16:46:20.779Z,22.90
2023-05-08T16:48:53.548Z,23.70
2023-05-08T16:51:20.495Z,24.00
2023-05-08T16:53:47.371Z,24.30
2023-05-08T16:56:14.170Z,24.70
2023-05-08T16:58:43.215Z,25.10
2023-05-08T17:01:11.843Z,25.60
2023-05-08T17:03:39.014Z,26.10
2023-05-08T17:06:07.567Z,26.60
2023-05-08T17:08:34.550Z,27.00
2023-05-08T17:11:01.378Z,27.30
2023-05-08T17:13:28.364Z,27.50
2023-05-08T17:15:55.254Z,27.60
2023-05-08T17:18:22.043Z,27.60
2023-05-08T17:20:50.039Z,27.50
2023-05-08T17:23:16.850Z,27.50
2023-05-08T17:25:44.016Z,27.50
2023-05-08T17:28:11.024Z,27.40
2023-05-08T17:30:38.281Z,27.20
2023-05-08T17:33:05.221Z,27.10
2023-05-08T17:35:32.186Z,26.90
2023-05-08T17:37:59.001Z,26.80
2023-05-08T17:40:26.240Z,26.60
2023-05-08T17:42:53.030Z,26.50
2023-05-08T17:45:19.814Z,26.30
2023-05-08T17:47:46.707Z,26.20
2023-05-08T17:50:13.589Z,26.10
2023-05-08T17:52:40.783Z,26.00
2023-05-08T17:55:08.670Z,25.80
2023-05-08T17:57:35.572Z,25.70
2023-05-08T18:00:02.669Z,27.00
2023-05-08T18:02:29.511Z,25.40
2023-05-08T18:04:56.381Z,25.30
2023-05-08T18:07:23.224Z,25.20
2023-05-08T18:09:50.050Z,25.10
2023-05-08T18:12:16.909Z,25.00
2023-05-08T18:14:45.010Z,24.80
2023-05-08T18:17:13.526Z,22.10
2023-05-08T18:19:40.330Z,24.70
2023-05-08T18:22:07.173Z,24.60
2023-05-08T18:24:33.991Z,24.50
2023-05-08T18:27:00.808Z,24.30
2023-05-08T18:29:27.631Z,24.20
2023-05-08T18:31:54.449Z,24.10
2023-05-08T18:34:21.281Z,24.00
2023-05-08T18:36:48.158Z,23.90
2023-05-08T18:39:15.533Z,23.70
2023-05-08T18:41:42.366Z,23.60
2023-05-08T18:44:10.154Z,23.50
2023-05-08T18:46:37.223Z,23.40
2023-05-08T18:49:04.278Z,23.30
2023-05-08T18:51:31.073Z,23.20
2023-05-08T18:53:57.917Z,23.10
2023-05-08T18:56:24.699Z,23.00
2023-05-08T18:58:51.478Z,22.90
2023-05-08T19:01:20.114Z,22.80
2023-05-08T19:03:48.311Z,22.70
2023-05-08T19:06:15.426Z,22.60
2023-05-08T19:08:42.492Z,22.50
2023-05-08T19:11:10.348Z,22.40
2023-05-08T19:13:37.531Z,22.30
2023-05-08T19:16:04.592Z,22.20
2023-05-08T19:18:31.578Z,22.10
2023-05-08T19:20:58.452Z,22.00
2023-05-08T19:23:25.265Z,22.00
2023-05-08T19:25:52.976Z,21.90
2023-05-08T19:28:19.876Z,21.80
2023-05-08T19:30:47.004Z,21.80
2023-05-08T19:33:13.877Z,21.70
2023-05-08T19:35:41.807Z,21.60
2023-05-08T19:38:09.281Z,21.60
2023-05-08T19:40:44.779Z,21.50
2023-05-08T19:43:19.169Z,21.40
2023-05-08T19:45:46.089Z,21.40
2023-05-08T19:48:18.005Z,21.40
2023-05-08T19:50:45.557Z,21.30
2023-05-08T19:53:12.671Z,21.30
2023-05-08T19:55:40.461Z,21.30
2023-05-08T19:58:07.702Z,21.20
2023-05-08T20:00:34.636Z,21.20
2023-05-08T20:03:01.757Z,21.20
2023-05-08T20:05:28.695Z,21.10
2023-05-08T20:07:55.834Z,21.10
2023-05-08T20:10:22.936Z,21.00
2023-05-08T20:12:49.837Z,21.00
2023-05-08T20:15:16.718Z,21.00
2023-05-08T20:17:43.730Z,20.80
2023-05-08T20:20:11.639Z,20.90
2023-05-08T20:22:38.569Z,20.90
2023-05-08T20:25:05.740Z,20.90
2023-05-08T20:27:32.530Z,20.90
2023-05-08T20:29:59.320Z,20.90
2023-05-08T20:32:26.350Z,20.90
2023-05-08T20:34:53.232Z,20.80
2023-05-08T20:37:20.088Z,20.80
2023-05-08T20:39:46.929Z,20.80
2023-05-08T20:42:13.731Z,20.80
2023-05-08T20:44:40.652Z,20.80
2023-05-08T20:47:07.456Z,20.80
2023-05-08T20:49:34.265Z,20.80
2023-05-08T20:52:01.075Z,20.80
2023-05-08T20:54:29.488Z,20.70
2023-05-08T20:56:56.264Z,20.80
2023-05-08T20:59:23.700Z,20.80
2023-05-08T21:01:50.868Z,20.80
2023-05-08T21:04:18.023Z,20.80
2023-05-08T21:06:44.840Z,20.80
2023-05-08T21:09:11.703Z,20.80
2023-05-08T21:11:38.485Z,21.00
2023-05-08T21:14:05.343Z,20.80
2023-05-08T21:16:32.201Z,20.80
2023-05-08T21:18:59.141Z,20.80
2023-05-08T21:21:25.898Z,20.80
2023-05-08T21:23:53.421Z,20.80
2023-05-08T21:26:23.414Z,20.80
2023-05-08T21:28:52.630Z,20.80
2023-05-08T21:31:19.974Z,20.80
2023-05-08T21:33:46.950Z,20.80
2023-05-08T21:36:14.052Z,20.80
2023-05-08T21:38:41.515Z,20.80
2023-05-08T21:41:08.925Z,20.80
2023-05-08T21:43:36.582Z,20.80
2023-05-08T21:46:05.250Z,20.80
2023-05-08T21:48:32.145Z,20.70
2023-05-08T21:50:59.321Z,20.70
2023-05-08T21:53:26.170Z,20.70
2023-05-08T21:55:52.929Z,20.70
2023-05-08T21:58:19.708Z,20.70
2023-05-08T22:00:46.482Z,20.70
2023-05-08T22:03:13.569Z,20.90
2023-05-08T22:05:40.575Z,20.70
2023-05-08T22:08:07.409Z,20.70
2023-05-08T22:10:34.273Z,20.80
2023-05-08T22:13:01.753Z,20.80
2023-05-08T22:15:30.653Z,22.30
2023-05-08T22:17:58.725Z,20.70
2023-05-08T22:20:25.863Z,20.70
2023-05-08T22:22:52.684Z,20.70
2023-05-08T22:25:21.694Z,20.70
2023-05-08T22:27:48.984Z,20.60
2023-05-08T22:30:15.845Z,20.60
2023-05-08T22:32:42.927Z,20.80
2023-05-08T22:35:09.909Z,20.60
2023-05-08T22:37:36.943Z,20.60
2023-05-08T22:40:04.005Z,20.60
2023-05-08T22:42:31.270Z,20.60
2023-05-08T22:44:58.159Z,20.60
2023-05-08T22:47:26.041Z,20.60
2023-05-08T22:49:53.158Z,20.60
2023-05-08T22:52:19.921Z,20.60
2023-05-08T22:54:46.676Z,20.50
2023-05-08T22:57:14.264Z,20.50
2023-05-08T22:59:41.068Z,20.50
2023-05-08T23:02:08.239Z,20.50
2023-05-08T23:04:35.184Z,20.70
2023-05-08T23:07:02.325Z,20.50
2023-05-08T23:09:30.778Z,20.50
2023-05-08T23:11:57.613Z,18.70
2023-05-08T23:14:24.476Z,20.50
2023-05-08T23:16:51.365Z,20.60
2023-05-08T23:19:18.224Z,20.40
2023-05-08T23:21:45.084Z,20.50
2023-05-08T23:24:11.945Z,20.50
2023-05-08T23:26:41.396Z,20.60
2023-05-08T23:29:08.898Z,20.50
2023-05-08T23:31:35.733Z,20.50
2023-05-08T23:34:02.969Z,20.50
2023-05-08T23:36:29.764Z,20.50
2023-05-08T23:38:56.686Z,20.50
2023-05-08T23:41:24.214Z,20.50
2023-05-08T23:43:51.255Z,20.50
2023-05-08T23:46:18.127Z,20.50
2023-05-08T23:48:44.979Z,20.50
2023-05-08T23:51:11.958Z,20.50
2023-05-08T23:53:38.754Z,20.50
2023-05-08T23:56:05.981Z,20.50
2023-05-08T23:58:32.904Z,20.40
